Renfrew, Pennsylvania
Current Conditions -  °F | °C
As of 9:15 AM on Sunday 25 Jan 2015 (Local Time) from KBTP Reporting Station
Overcast Overcast  
Wind Chill: 30°   Ceiling: 500
Heat Index: 34°   Visibility: 1.7mi
Dew Point: 30°   Wind: 5mph
Humidity: 87%   Direction: 260°W
Pressure: 29.78"   Gusts: NA
Location:  40.81°N, 79.96°W
Report Text: KBTP 251415Z AUTO 26004KT 1 3/4SM OVC005 01/M01 A2978 RMK AO1
Loading
Personal Weather Stations






























Interactive Weather Map New forecast layout! Learn more

10-Day Weather Forecast

Advertisements
Track Severe Weather on mobile